createdAt,value
2022-09-03T00:00:49.994Z,13.20
2022-09-03T00:01:50.988Z,13.19
2022-09-03T00:02:51.862Z,13.17
2022-09-03T00:03:52.750Z,13.14
2022-09-03T00:04:53.603Z,13.15
2022-09-03T00:05:54.513Z,13.14
2022-09-03T00:06:55.402Z,13.11
2022-09-03T00:07:56.306Z,13.11
2022-09-03T00:08:57.024Z,13.08
2022-09-03T00:09:57.892Z,13.08
2022-09-03T00:10:58.831Z,13.10
2022-09-03T00:11:59.667Z,13.10
2022-09-03T00:13:00.549Z,13.10
2022-09-03T00:14:01.435Z,13.10
2022-09-03T00:15:02.311Z,13.10
2022-09-03T00:16:03.307Z,13.10
2022-09-03T00:17:04.156Z,13.10
2022-09-03T00:18:05.031Z,13.08
2022-09-03T00:19:05.914Z,13.07
2022-09-03T00:20:06.807Z,13.07
2022-09-03T00:21:07.692Z,13.05
2022-09-03T00:22:08.576Z,13.07
2022-09-03T00:23:09.465Z,13.07
2022-09-03T00:24:14.139Z,13.07
2022-09-03T00:25:11.334Z,13.08
2022-09-03T00:26:12.226Z,13.08
2022-09-03T00:27:13.111Z,13.10
2022-09-03T00:28:13.997Z,13.11
2022-09-03T00:29:14.886Z,13.14
2022-09-03T00:30:17.383Z,13.14
2022-09-03T00:31:16.624Z,13.12
2022-09-03T00:32:17.462Z,13.14
2022-09-03T00:33:18.347Z,13.14
2022-09-03T00:34:19.236Z,13.15
2022-09-03T00:35:20.120Z,13.15
2022-09-03T00:36:21.000Z,13.17
2022-09-03T00:37:21.888Z,13.17
2022-09-03T00:38:22.810Z,13.15
2022-09-03T00:39:23.711Z,13.17
2022-09-03T00:40:24.547Z,13.17
2022-09-03T00:41:25.429Z,13.17
2022-09-03T00:42:26.306Z,13.17
2022-09-03T00:43:27.190Z,13.19
2022-09-03T00:44:28.072Z,13.19
2022-09-03T00:45:28.964Z,13.20
2022-09-03T00:46:30.183Z,13.20
2022-09-03T00:47:30.525Z,13.20
2022-09-03T00:48:31.544Z,13.19
2022-09-03T00:49:32.001Z,13.20
2022-09-03T00:50:32.887Z,13.19
2022-09-03T00:51:33.791Z,13.17
2022-09-03T00:52:34.666Z,13.15
2022-09-03T00:53:35.547Z,13.15
2022-09-03T00:54:36.430Z,13.12
2022-09-03T00:55:37.327Z,13.12
2022-09-03T00:56:38.242Z,13.11
2022-09-03T00:57:39.133Z,13.10
2022-09-03T00:58:40.042Z,13.11
2022-09-03T00:59:40.939Z,13.12
2022-09-03T01:00:41.847Z,13.12
2022-09-03T01:01:42.876Z,13.14
2022-09-03T01:02:43.349Z,13.14
2022-09-03T01:03:43.739Z,13.14
2022-09-03T01:04:44.622Z,13.15
2022-09-03T01:05:45.510Z,13.15
2022-09-03T01:06:46.394Z,13.19
2022-09-03T01:07:47.290Z,13.19
2022-09-03T01:08:49.131Z,13.19
2022-09-03T01:09:48.684Z,13.19
2022-09-03T01:10:49.573Z,13.22
2022-09-03T01:11:50.463Z,13.22
2022-09-03T01:12:51.350Z,13.22
2022-09-03T01:13:52.240Z,13.23
2022-09-03T01:14:53.125Z,13.25
2022-09-03T01:15:54.039Z,13.25
2022-09-03T01:16:54.909Z,13.28
2022-09-03T01:17:55.792Z,13.28
2022-09-03T01:18:56.698Z,13.29
2022-09-03T01:19:57.608Z,13.28
2022-09-03T01:20:58.492Z,13.28
2022-09-03T01:21:59.407Z,13.26
2022-09-03T01:23:00.309Z,13.26
2022-09-03T01:24:01.200Z,13.25
2022-09-03T01:25:02.081Z,13.25
2022-09-03T01:26:02.978Z,13.23
2022-09-03T01:27:03.873Z,13.23
2022-09-03T01:28:04.774Z,13.23
2022-09-03T01:29:05.646Z,13.20
2022-09-03T01:30:06.522Z,13.20
2022-09-03T01:31:07.491Z,13.17
2022-09-03T01:32:08.340Z,13.15
2022-09-03T01:33:09.225Z,13.15
2022-09-03T01:34:10.123Z,13.14
2022-09-03T01:35:10.992Z,13.12
2022-09-03T01:36:11.875Z,13.11
2022-09-03T01:37:12.771Z,13.10
2022-09-03T01:38:13.655Z,13.11
2022-09-03T01:39:14.539Z,13.11
2022-09-03T01:40:15.425Z,13.11
2022-09-03T01:41:16.317Z,13.11
2022-09-03T01:42:20.882Z,13.10
2022-09-03T01:43:17.969Z,13.11
2022-09-03T01:44:18.851Z,13.11
2022-09-03T01:45:19.735Z,13.11
2022-09-03T01:46:20.656Z,13.12
2022-09-03T01:47:21.426Z,13.14
2022-09-03T01:48:22.406Z,13.17
2022-09-03T01:49:23.252Z,13.15
2022-09-03T01:50:24.135Z,13.14
2022-09-03T01:51:25.020Z,13.17
2022-09-03T01:52:25.912Z,13.17
2022-09-03T01:53:26.800Z,13.17
2022-09-03T01:54:27.688Z,13.17
2022-09-03T01:55:28.566Z,13.17
2022-09-03T01:56:29.448Z,13.17
2022-09-03T01:57:35.453Z,13.17
2022-09-03T01:58:32.110Z,13.15
2022-09-03T01:59:31.995Z,13.19
2022-09-03T02:00:32.881Z,13.19
2022-09-03T02:01:33.851Z,13.19
2022-09-03T02:02:34.774Z,13.17
2022-09-03T02:03:35.603Z,13.17
2022-09-03T02:04:37.371Z,13.17
2022-09-03T02:05:37.255Z,13.19
2022-09-03T02:06:38.147Z,13.17
2022-09-03T02:07:39.031Z,13.17
2022-09-03T02:08:39.922Z,13.17
2022-09-03T02:09:40.806Z,13.17
2022-09-03T02:10:41.524Z,13.19
2022-09-03T02:11:42.360Z,13.17
2022-09-03T02:12:43.145Z,13.17
2022-09-03T02:13:44.025Z,13.20
2022-09-03T02:14:44.929Z,13.19
2022-09-03T02:15:45.917Z,13.19
2022-09-03T02:16:46.776Z,13.17
2022-09-03T02:17:47.663Z,13.19
2022-09-03T02:18:48.541Z,13.20
2022-09-03T02:19:49.438Z,13.17
2022-09-03T02:20:50.343Z,13.20
2022-09-03T02:21:51.255Z,13.22
2022-09-03T02:22:52.164Z,13.20
2022-09-03T02:23:53.049Z,13.23
2022-09-03T02:24:53.948Z,13.26
2022-09-03T02:25:54.855Z,13.25
2022-09-03T02:26:55.766Z,13.26
2022-09-03T02:27:56.658Z,13.26
2022-09-03T02:28:57.575Z,13.28
2022-09-03T02:29:58.451Z,13.29
2022-09-03T02:30:59.483Z,13.26
2022-09-03T02:32:00.322Z,13.28
2022-09-03T02:33:01.205Z,13.26
2022-09-03T02:34:02.089Z,13.28
2022-09-03T02:35:02.981Z,13.29
2022-09-03T02:36:03.888Z,13.28
2022-09-03T02:37:04.824Z,13.28
2022-09-03T02:38:05.687Z,13.28
2022-09-03T02:39:06.587Z,13.28
2022-09-03T02:40:07.557Z,13.29
2022-09-03T02:41:08.403Z,13.28
2022-09-03T02:42:09.308Z,13.28
2022-09-03T02:43:10.018Z,13.28
2022-09-03T02:44:10.895Z,13.25
2022-09-03T02:45:11.800Z,13.23
2022-09-03T02:46:12.781Z,13.23
2022-09-03T02:47:13.654Z,13.23
2022-09-03T02:48:14.537Z,13.23
2022-09-03T02:49:15.427Z,13.20
2022-09-03T02:50:16.301Z,13.20
2022-09-03T02:51:17.180Z,13.20
2022-09-03T02:52:17.832Z,13.20
2022-09-03T02:53:18.715Z,13.19
2022-09-03T02:54:21.152Z,13.17
2022-09-03T02:55:20.103Z,13.17
2022-09-03T02:56:21.001Z,13.17
2022-09-03T02:57:27.713Z,13.15
2022-09-03T02:58:23.726Z,13.17
2022-09-03T02:59:23.609Z,13.17
2022-09-03T03:00:24.493Z,13.17
2022-09-03T03:01:25.471Z,13.17
2022-09-03T03:02:26.352Z,13.17
2022-09-03T03:03:27.228Z,13.19
2022-09-03T03:04:28.117Z,13.19
2022-09-03T03:05:28.995Z,13.17
2022-09-03T03:06:29.869Z,13.17
2022-09-03T03:07:30.771Z,13.17
2022-09-03T03:08:31.645Z,13.17
2022-09-03T03:09:32.528Z,13.14
2022-09-03T03:10:33.414Z,13.15
2022-09-03T03:11:34.294Z,13.14
2022-09-03T03:12:35.193Z,13.12
2022-09-03T03:13:36.090Z,13.12
2022-09-03T03:14:36.971Z,13.11
2022-09-03T03:15:37.852Z,13.11
2022-09-03T03:16:38.829Z,13.10
2022-09-03T03:17:39.679Z,13.10
2022-09-03T03:18:40.544Z,13.10
2022-09-03T03:19:41.433Z,13.08
2022-09-03T03:20:42.310Z,13.08
2022-09-03T03:21:43.196Z,13.10
2022-09-03T03:22:44.082Z,13.08
2022-09-03T03:23:44.967Z,13.07
2022-09-03T03:24:45.851Z,13.07
2022-09-03T03:25:46.733Z,13.08
2022-09-03T03:26:47.623Z,13.07
2022-09-03T03:27:48.518Z,13.07
2022-09-03T03:28:49.409Z,13.08
2022-09-03T03:29:50.282Z,13.07
2022-09-03T03:30:51.256Z,13.07
2022-09-03T03:31:52.077Z,13.05
2022-09-03T03:32:52.970Z,13.04
2022-09-03T03:33:53.856Z,13.05
2022-09-03T03:34:54.737Z,13.05
2022-09-03T03:35:55.632Z,13.05
2022-09-03T03:36:56.504Z,13.07
2022-09-03T03:37:57.404Z,13.05
2022-09-03T03:38:58.286Z,13.05
2022-09-03T03:39:59.238Z,13.04
2022-09-03T03:41:00.098Z,13.03
2022-09-03T03:42:00.979Z,13.03
2022-09-03T03:43:01.867Z,13.01
2022-09-03T03:44:02.755Z,13.01
2022-09-03T03:45:03.629Z,13.03
2022-09-03T03:46:04.613Z,13.01
2022-09-03T03:47:05.009Z,13.01
2022-09-03T03:48:05.903Z,13.03
2022-09-03T03:49:06.811Z,13.03
2022-09-03T03:50:07.668Z,13.04
2022-09-03T03:51:08.550Z,13.03
2022-09-03T03:52:09.435Z,13.03
2022-09-03T03:53:10.327Z,13.03
2022-09-03T03:54:11.225Z,13.04
2022-09-03T03:55:11.783Z,13.03
2022-09-03T03:56:12.687Z,13.04
2022-09-03T03:57:13.567Z,13.05
2022-09-03T03:58:14.463Z,13.05
2022-09-03T03:59:15.345Z,13.05
2022-09-03T04:00:16.225Z,13.04
2022-09-03T04:01:17.185Z,13.07
2022-09-03T04:02:18.177Z,13.04
2022-09-03T04:03:18.537Z,13.05
2022-09-03T04:04:19.411Z,13.03
2022-09-03T04:05:23.081Z,13.01
2022-09-03T04:06:20.845Z,13.01
2022-09-03T04:07:21.727Z,13.01
2022-09-03T04:08:22.650Z,12.97
2022-09-03T04:09:23.509Z,13.00
2022-09-03T04:10:24.391Z,12.97
2022-09-03T04:11:25.304Z,13.01
2022-09-03T04:12:26.185Z,13.01
2022-09-03T04:13:27.021Z,13.01
2022-09-03T04:14:27.900Z,13.03
2022-09-03T04:15:28.782Z,13.05
2022-09-03T04:16:29.688Z,13.05
2022-09-03T04:17:30.473Z,13.08
2022-09-03T04:18:31.365Z,13.10
2022-09-03T04:19:32.248Z,13.12
2022-09-03T04:20:33.106Z,13.14
2022-09-03T04:21:33.924Z,13.17
2022-09-03T04:22:34.770Z,13.19
2022-09-03T04:23:35.657Z,13.22
2022-09-03T04:24:36.542Z,13.23
2022-09-03T04:25:37.437Z,13.25
2022-09-03T04:26:38.274Z,13.25
2022-09-03T04:27:39.103Z,13.26
2022-09-03T04:28:39.939Z,13.26
2022-09-03T04:29:40.771Z,13.28
2022-09-03T04:30:41.623Z,13.29
2022-09-03T04:31:42.234Z,13.28
2022-09-03T04:32:43.074Z,13.26
2022-09-03T04:33:43.902Z,13.26
2022-09-03T04:34:44.735Z,13.26
2022-09-03T04:35:45.570Z,13.25
2022-09-03T04:36:49.874Z,13.25
2022-09-03T04:37:48.119Z,13.22
2022-09-03T04:38:47.956Z,13.20
2022-09-03T04:39:49.053Z,13.23
2022-09-03T04:40:49.385Z,13.20
2022-09-03T04:41:50.221Z,13.17
2022-09-03T04:42:51.061Z,13.15
2022-09-03T04:43:51.898Z,13.14
2022-09-03T04:44:52.718Z,13.12
2022-09-03T04:45:53.585Z,13.08
2022-09-03T04:46:54.425Z,13.08
2022-09-03T04:47:55.239Z,13.05
2022-09-03T04:48:56.080Z,13.05
2022-09-03T04:49:56.898Z,13.04
2022-09-03T04:50:57.744Z,13.03
2022-09-03T04:51:58.589Z,13.04
2022-09-03T04:52:59.540Z,13.03
2022-09-03T04:54:00.368Z,13.01
2022-09-03T04:55:01.195Z,13.00
2022-09-03T04:56:02.017Z,13.00
2022-09-03T04:57:02.882Z,13.00
2022-09-03T04:58:03.697Z,12.96
2022-09-03T04:59:04.552Z,12.97
2022-09-03T05:00:05.091Z,12.96
2022-09-03T05:01:05.987Z,12.93
2022-09-03T05:02:06.789Z,12.96
2022-09-03T05:03:07.609Z,12.93
2022-09-03T05:04:08.436Z,12.93
2022-09-03T05:05:09.288Z,12.92
2022-09-03T05:06:10.116Z,12.92
2022-09-03T05:07:10.942Z,12.89
2022-09-03T05:08:11.781Z,12.89
2022-09-03T05:09:12.611Z,12.87
2022-09-03T05:10:13.445Z,12.86
2022-09-03T05:11:14.273Z,12.86
2022-09-03T05:12:15.103Z,12.85
2022-09-03T05:13:15.948Z,12.83
2022-09-03T05:14:16.731Z,12.83
2022-09-03T05:15:17.568Z,12.82
2022-09-03T05:16:18.455Z,12.82
2022-09-03T05:17:19.245Z,12.77
2022-09-03T05:18:20.085Z,12.77
2022-09-03T05:19:20.903Z,12.77
2022-09-03T05:20:21.732Z,12.77
2022-09-03T05:21:22.560Z,12.75
2022-09-03T05:22:23.375Z,12.75
2022-09-03T05:23:24.211Z,12.74
2022-09-03T05:24:25.054Z,12.75
2022-09-03T05:25:25.875Z,12.74
2022-09-03T05:26:26.728Z,12.71
2022-09-03T05:27:27.559Z,12.72
2022-09-03T05:28:28.382Z,12.70
2022-09-03T05:29:29.072Z,12.72
2022-09-03T05:30:29.901Z,12.72
2022-09-03T05:31:30.795Z,12.72
2022-09-03T05:32:31.597Z,12.72
2022-09-03T05:33:32.456Z,12.72
2022-09-03T05:34:33.275Z,12.74
2022-09-03T05:35:34.105Z,12.71
2022-09-03T05:36:34.957Z,12.72
2022-09-03T05:37:35.762Z,12.72
2022-09-03T05:38:36.616Z,12.71
2022-09-03T05:39:37.499Z,12.74
2022-09-03T05:40:38.303Z,12.72
2022-09-03T05:41:39.140Z,12.72
2022-09-03T05:42:39.952Z,12.72
2022-09-03T05:43:40.814Z,12.72
2022-09-03T05:44:41.651Z,12.72
2022-09-03T05:45:42.508Z,12.74
2022-09-03T05:46:43.326Z,12.77
2022-09-03T05:47:44.154Z,12.77
2022-09-03T05:48:44.983Z,12.78
2022-09-03T05:49:45.803Z,12.79
2022-09-03T05:50:46.631Z,12.82
2022-09-03T05:51:47.452Z,12.85
2022-09-03T05:52:48.290Z,12.85
2022-09-03T05:53:49.199Z,12.89
2022-09-03T05:54:49.989Z,12.90
2022-09-03T05:55:50.796Z,12.92
2022-09-03T05:56:51.663Z,12.95
2022-09-03T05:57:52.479Z,12.95
2022-09-03T05:58:53.307Z,12.97
2022-09-03T05:59:54.163Z,12.97
2022-09-03T06:00:54.972Z,13.00
2022-09-03T06:02:00.076Z,13.00
2022-09-03T06:02:56.431Z,13.01
2022-09-03T06:03:57.259Z,13.04
2022-09-03T06:04:58.093Z,13.05
2022-09-03T06:05:58.919Z,13.08
2022-09-03T06:06:59.747Z,13.11
2022-09-03T06:08:00.587Z,13.12
2022-09-03T06:09:01.409Z,13.17
2022-09-03T06:10:02.231Z,13.15
2022-09-03T06:11:03.074Z,13.20
2022-09-03T06:12:04.657Z,13.20
2022-09-03T06:13:04.579Z,13.23
2022-09-03T06:14:05.406Z,13.26
2022-09-03T06:15:06.234Z,13.29
2022-09-03T06:16:07.140Z,13.29
2022-09-03T06:17:07.933Z,13.32
2022-09-03T06:18:08.764Z,13.36
2022-09-03T06:19:09.612Z,13.39
2022-09-03T06:20:10.426Z,13.41
2022-09-03T06:21:11.266Z,13.44
2022-09-03T06:22:11.996Z,13.45
2022-09-03T06:23:12.836Z,13.51
2022-09-03T06:24:13.666Z,13.55
2022-09-03T06:25:14.596Z,13.57
2022-09-03T06:26:15.176Z,13.60
2022-09-03T06:27:16.047Z,13.60
2022-09-03T06:28:16.557Z,13.64
2022-09-03T06:29:18.274Z,13.66
2022-09-03T06:30:18.093Z,13.67
2022-09-03T06:31:19.032Z,13.70
2022-09-03T06:32:19.814Z,13.73
2022-09-03T06:33:20.666Z,13.73
2022-09-03T06:34:21.483Z,13.77
2022-09-03T06:35:22.316Z,13.75
2022-09-03T06:36:23.170Z,13.78
2022-09-03T06:37:23.978Z,13.81
2022-09-03T06:38:25.008Z,13.81
2022-09-03T06:39:25.327Z,13.82
2022-09-03T06:40:26.139Z,13.82
2022-09-03T06:41:26.983Z,13.85
2022-09-03T06:42:27.803Z,13.87
2022-09-03T06:43:28.722Z,13.88
2022-09-03T06:44:29.500Z,13.92
2022-09-03T06:45:30.371Z,13.92
2022-09-03T06:46:31.216Z,13.97
2022-09-03T06:47:32.014Z,14.00
2022-09-03T06:48:32.853Z,14.04
2022-09-03T06:49:33.714Z,14.06
2022-09-03T06:50:34.876Z,14.10
2022-09-03T06:51:35.189Z,14.17
2022-09-03T06:52:36.009Z,14.22
2022-09-03T06:53:36.848Z,14.27
2022-09-03T06:54:37.729Z,14.35
2022-09-03T06:55:38.525Z,14.37
2022-09-03T06:56:40.774Z,14.45
2022-09-03T06:57:39.956Z,14.50
2022-09-03T06:58:40.779Z,14.54
2022-09-03T06:59:41.759Z,14.58
2022-09-03T07:00:42.677Z,14.60
2022-09-03T07:01:44.636Z,14.68
2022-09-03T07:02:45.133Z,14.70
2022-09-03T07:03:45.412Z,14.75
2022-09-03T07:04:46.234Z,14.77
2022-09-03T07:05:47.104Z,14.77
2022-09-03T07:06:47.970Z,14.81
2022-09-03T07:07:48.778Z,14.80
2022-09-03T07:08:49.629Z,14.83
2022-09-03T07:09:50.461Z,14.86
2022-09-03T07:10:51.305Z,14.89
2022-09-03T07:11:52.132Z,14.91
2022-09-03T07:12:53.016Z,14.92
2022-09-03T07:13:53.816Z,14.92
2022-09-03T07:14:54.644Z,14.95
2022-09-03T07:15:55.558Z,14.98
2022-09-03T07:16:56.354Z,15.01
2022-09-03T07:17:57.193Z,15.02
2022-09-03T07:18:58.067Z,15.07
2022-09-03T07:19:58.875Z,15.17
2022-09-03T07:20:59.701Z,15.32
2022-09-03T07:22:00.528Z,15.64
2022-09-03T07:23:01.409Z,15.97
2022-09-03T07:24:02.202Z,16.35
2022-09-03T07:25:03.034Z,16.64
2022-09-03T07:26:03.918Z,16.88
2022-09-03T07:27:04.707Z,17.01
2022-09-03T07:28:05.545Z,17.04
2022-09-03T07:29:06.364Z,17.08
2022-09-03T07:30:07.193Z,17.08
2022-09-03T07:31:08.075Z,17.06
2022-09-03T07:32:08.897Z,17.06
2022-09-03T07:33:09.698Z,17.01
2022-09-03T07:34:10.726Z,16.94
2022-09-03T07:35:11.046Z,16.91
2022-09-03T07:36:11.878Z,16.85
2022-09-03T07:37:12.725Z,16.79
2022-09-03T07:38:13.537Z,16.73
2022-09-03T07:39:14.371Z,16.66
2022-09-03T07:40:15.195Z,16.60
2022-09-03T07:41:17.641Z,16.56
2022-09-03T07:42:17.732Z,16.49
2022-09-03T07:43:17.628Z,16.43
2022-09-03T07:44:18.428Z,16.41
2022-09-03T07:45:19.257Z,16.38
2022-09-03T07:46:20.135Z,16.34
2022-09-03T07:47:26.927Z,16.33
2022-09-03T07:48:22.651Z,16.30
2022-09-03T07:49:22.645Z,16.33
2022-09-03T07:50:23.400Z,16.31
2022-09-03T07:51:24.220Z,16.30
2022-09-03T07:52:25.055Z,16.28
2022-09-03T07:53:25.892Z,16.28
2022-09-03T07:54:26.717Z,16.28
2022-09-03T07:55:27.551Z,16.33
2022-09-03T07:56:28.370Z,16.38
2022-09-03T07:57:29.203Z,16.49
2022-09-03T07:58:30.034Z,16.75
2022-09-03T07:59:30.863Z,16.78
2022-09-03T08:00:31.714Z,16.82
2022-09-03T08:01:32.527Z,16.89
2022-09-03T08:02:33.359Z,17.06
2022-09-03T08:03:34.247Z,17.08
2022-09-03T08:04:35.054Z,17.11
2022-09-03T08:05:35.886Z,17.14
2022-09-03T08:06:36.691Z,17.14
2022-09-03T08:07:37.532Z,17.15
2022-09-03T08:08:38.048Z,17.12
2022-09-03T08:09:38.893Z,17.11
2022-09-03T08:10:39.725Z,17.14
2022-09-03T08:11:40.552Z,17.15
2022-09-03T08:12:41.383Z,17.18
2022-09-03T08:13:42.223Z,17.30
2022-09-03T08:14:43.063Z,17.51
2022-09-03T08:15:43.941Z,17.63
2022-09-03T08:16:44.740Z,17.72
2022-09-03T08:17:45.624Z,17.77
2022-09-03T08:18:46.383Z,17.81
2022-09-03T08:19:47.223Z,17.92
2022-09-03T08:20:48.044Z,17.95
2022-09-03T08:21:48.870Z,17.99
2022-09-03T08:22:49.711Z,18.10
2022-09-03T08:23:50.639Z,18.17
2022-09-03T08:24:51.474Z,18.21
2022-09-03T08:25:52.307Z,18.26
2022-09-03T08:26:53.144Z,18.27
2022-09-03T08:27:53.985Z,18.27
2022-09-03T08:28:54.817Z,18.32
2022-09-03T08:29:55.653Z,18.37
2022-09-03T08:30:56.609Z,18.44
2022-09-03T08:31:59.578Z,18.50
2022-09-03T08:32:58.066Z,18.55
2022-09-03T08:33:58.895Z,18.62
2022-09-03T08:34:59.727Z,18.70
2022-09-03T08:36:00.556Z,18.73
2022-09-03T08:37:01.376Z,18.78
2022-09-03T08:38:02.214Z,18.82
2022-09-03T08:39:03.033Z,18.87
2022-09-03T08:40:03.876Z,18.88
2022-09-03T08:41:04.683Z,18.91
2022-09-03T08:42:05.523Z,18.94
2022-09-03T08:43:06.975Z,18.94
2022-09-03T08:44:07.297Z,18.99
2022-09-03T08:45:08.134Z,19.04
2022-09-03T08:46:09.047Z,19.02
2022-09-03T08:47:09.822Z,19.04
2022-09-03T08:48:10.663Z,19.04
2022-09-03T08:49:11.498Z,19.04
2022-09-03T08:50:12.388Z,19.02
2022-09-03T08:51:13.197Z,19.07
2022-09-03T08:52:14.026Z,19.08
2022-09-03T08:53:14.856Z,19.11
2022-09-03T08:54:15.688Z,19.14
2022-09-03T08:55:16.518Z,19.18
2022-09-03T08:56:17.346Z,19.23
2022-09-03T08:57:18.175Z,19.29
2022-09-03T08:58:19.049Z,19.37
2022-09-03T08:59:19.836Z,19.41
2022-09-03T09:00:20.667Z,19.47
2022-09-03T09:01:21.545Z,19.51
2022-09-03T09:02:22.462Z,19.55
2022-09-03T09:03:23.304Z,19.56
2022-09-03T09:04:24.133Z,19.56
2022-09-03T09:05:24.957Z,19.55
2022-09-03T09:06:25.768Z,19.55
2022-09-03T09:07:26.582Z,19.50
2022-09-03T09:08:27.420Z,19.47
2022-09-03T09:09:28.242Z,19.41
2022-09-03T09:10:29.071Z,19.37
2022-09-03T09:11:29.891Z,19.31
2022-09-03T09:12:34.628Z,19.26
2022-09-03T09:13:32.444Z,19.22
2022-09-03T09:14:32.274Z,19.19
2022-09-03T09:15:33.128Z,19.14
2022-09-03T09:16:33.922Z,19.13
2022-09-03T09:17:34.752Z,19.13
2022-09-03T09:18:35.592Z,19.13
2022-09-03T09:19:36.422Z,19.14
2022-09-03T09:20:37.254Z,19.14
2022-09-03T09:21:38.079Z,19.13
2022-09-03T09:22:38.926Z,19.11
2022-09-03T09:23:39.757Z,19.11
2022-09-03T09:24:40.585Z,19.13
2022-09-03T09:25:41.406Z,19.11
2022-09-03T09:26:42.234Z,19.10
2022-09-03T09:27:43.070Z,19.08
2022-09-03T09:28:43.900Z,19.07
2022-09-03T09:29:44.743Z,19.06
2022-09-03T09:30:45.571Z,19.06
2022-09-03T09:31:46.406Z,19.04
2022-09-03T09:32:47.246Z,19.02
2022-09-03T09:33:48.063Z,19.00
2022-09-03T09:34:52.221Z,19.00
2022-09-03T09:35:49.384Z,18.98
2022-09-03T09:36:50.217Z,18.95
2022-09-03T09:37:51.051Z,18.94
2022-09-03T09:38:51.908Z,18.91
2022-09-03T09:39:52.724Z,18.92
2022-09-03T09:40:53.536Z,18.91
2022-09-03T09:41:54.358Z,18.92
2022-09-03T09:42:55.196Z,18.94
2022-09-03T09:43:56.017Z,18.92
2022-09-03T09:44:56.844Z,18.92
2022-09-03T09:45:57.723Z,18.94
2022-09-03T09:46:58.549Z,18.92
2022-09-03T09:47:59.352Z,18.92
2022-09-03T09:49:00.180Z,18.91
2022-09-03T09:50:01.010Z,18.91
2022-09-03T09:51:01.839Z,18.91
2022-09-03T09:52:02.659Z,18.91
2022-09-03T09:53:03.498Z,18.90
2022-09-03T09:54:04.317Z,18.90
2022-09-03T09:55:05.146Z,18.91
2022-09-03T09:56:05.976Z,18.88
2022-09-03T09:57:06.804Z,18.88
2022-09-03T09:58:12.068Z,18.88
2022-09-03T09:59:09.358Z,18.85
2022-09-03T10:00:09.188Z,18.84
2022-09-03T10:01:10.073Z,18.84
2022-09-03T10:02:10.846Z,18.82
2022-09-03T10:03:11.545Z,18.81
2022-09-03T10:04:12.336Z,18.80
2022-09-03T10:05:13.164Z,18.78
2022-09-03T10:06:13.993Z,18.76
2022-09-03T10:07:14.824Z,18.75
2022-09-03T10:08:15.653Z,18.72
2022-09-03T10:09:16.481Z,18.73
2022-09-03T10:10:17.301Z,18.72
2022-09-03T10:11:18.191Z,18.69
2022-09-03T10:12:19.018Z,18.70
2022-09-03T10:13:19.856Z,18.72
2022-09-03T10:14:20.676Z,18.72
2022-09-03T10:15:21.506Z,18.73
2022-09-03T10:16:22.381Z,18.75
2022-09-03T10:17:24.916Z,18.76
2022-09-03T10:18:26.182Z,18.75
2022-09-03T10:19:24.551Z,18.75
2022-09-03T10:20:25.382Z,18.75
2022-09-03T10:21:26.213Z,18.75
2022-09-03T10:22:27.031Z,18.73
2022-09-03T10:23:28.758Z,18.73
2022-09-03T10:24:28.575Z,18.72
2022-09-03T10:25:29.407Z,18.72
2022-09-03T10:26:30.805Z,18.72
2022-09-03T10:27:31.972Z,18.70
2022-09-03T10:28:31.842Z,18.69
2022-09-03T10:29:32.672Z,18.69
2022-09-03T10:30:33.491Z,18.69
2022-09-03T10:31:34.403Z,18.67
2022-09-03T10:32:39.117Z,18.69
2022-09-03T10:33:35.709Z,18.69
2022-09-03T10:34:36.539Z,18.69
2022-09-03T10:35:37.369Z,18.70
2022-09-03T10:36:38.188Z,18.72
2022-09-03T10:37:39.018Z,18.72
2022-09-03T10:38:39.849Z,18.75
2022-09-03T10:39:43.256Z,18.73
2022-09-03T10:40:41.252Z,18.78
2022-09-03T10:41:42.078Z,18.78
2022-09-03T10:42:42.909Z,18.80
2022-09-03T10:43:43.751Z,18.80
2022-09-03T10:44:44.568Z,18.80
2022-09-03T10:45:45.395Z,18.80
2022-09-03T10:46:46.300Z,18.81
2022-09-03T10:47:47.099Z,18.82
2022-09-03T10:48:47.925Z,18.85
2022-09-03T10:49:48.755Z,18.84
2022-09-03T10:50:49.589Z,18.85
2022-09-03T10:51:50.413Z,18.87
2022-09-03T10:52:51.234Z,18.88
2022-09-03T10:53:53.488Z,18.88
2022-09-03T10:54:52.944Z,18.88
2022-09-03T10:55:53.774Z,18.92
2022-09-03T10:56:54.604Z,18.98
2022-09-03T10:57:55.433Z,18.99
2022-09-03T10:58:56.272Z,19.00
2022-09-03T10:59:57.092Z,19.08
2022-09-03T11:00:57.923Z,19.11
2022-09-03T11:01:58.752Z,19.18
2022-09-03T11:02:59.653Z,19.19
2022-09-03T11:04:00.431Z,19.22
2022-09-03T11:05:01.253Z,19.23
2022-09-03T11:06:02.082Z,19.25
2022-09-03T11:07:02.912Z,19.25
2022-09-03T11:08:03.755Z,19.26
2022-09-03T11:09:06.641Z,19.26
2022-09-03T11:10:05.096Z,19.28
2022-09-03T11:11:05.919Z,19.26
2022-09-03T11:12:06.744Z,19.29
2022-09-03T11:13:07.582Z,19.32
2022-09-03T11:14:08.410Z,19.33
2022-09-03T11:15:09.230Z,19.33
2022-09-03T11:16:10.145Z,19.33
2022-09-03T11:17:10.970Z,19.37
2022-09-03T11:18:11.810Z,19.37
2022-09-03T11:19:12.639Z,19.39
2022-09-03T11:20:13.538Z,19.40
2022-09-03T11:21:14.361Z,19.41
2022-09-03T11:22:15.188Z,19.41
2022-09-03T11:23:16.913Z,19.47
2022-09-03T11:24:16.762Z,19.47
2022-09-03T11:25:17.584Z,19.54
2022-09-03T11:26:18.400Z,19.56
2022-09-03T11:27:19.222Z,19.58
2022-09-03T11:28:20.119Z,19.61
2022-09-03T11:29:20.900Z,19.63
2022-09-03T11:30:21.736Z,19.66
2022-09-03T11:31:22.646Z,19.68
2022-09-03T11:32:23.439Z,19.73
2022-09-03T11:33:24.277Z,19.74
2022-09-03T11:34:32.258Z,19.76
2022-09-03T11:35:26.839Z,19.80
2022-09-03T11:36:26.668Z,19.84
2022-09-03T11:37:27.502Z,19.87
2022-09-03T11:38:28.337Z,19.92
2022-09-03T11:39:29.192Z,19.98
2022-09-03T11:40:29.996Z,20.03
2022-09-03T11:41:30.826Z,20.08
2022-09-03T11:42:31.656Z,20.10
2022-09-03T11:43:32.484Z,20.11
2022-09-03T11:44:33.314Z,20.16
2022-09-03T11:45:34.144Z,20.16
2022-09-03T11:46:35.027Z,20.16
2022-09-03T11:47:35.793Z,20.18
2022-09-03T11:48:36.633Z,20.21
2022-09-03T11:49:37.462Z,20.26
2022-09-03T11:50:38.294Z,20.26
2022-09-03T11:51:39.123Z,20.29
2022-09-03T11:52:39.969Z,20.32
2022-09-03T11:53:40.799Z,20.36
2022-09-03T11:54:41.628Z,20.39
2022-09-03T11:55:43.613Z,20.42
2022-09-03T11:56:43.117Z,20.43
2022-09-03T11:57:43.949Z,20.39
2022-09-03T11:58:44.785Z,20.42
2022-09-03T11:59:45.604Z,20.41
2022-09-03T12:00:46.457Z,20.41
2022-09-03T12:01:47.264Z,20.41
2022-09-03T12:02:48.246Z,20.47
2022-09-03T12:03:49.052Z,20.48
2022-09-03T12:04:49.977Z,20.52
2022-09-03T12:05:50.786Z,20.57
2022-09-03T12:06:51.611Z,20.62
2022-09-03T12:07:52.430Z,20.66
2022-09-03T12:08:53.267Z,20.70
2022-09-03T12:09:54.088Z,20.76
2022-09-03T12:10:54.918Z,20.80
2022-09-03T12:11:55.752Z,20.82
2022-09-03T12:12:56.594Z,20.85
2022-09-03T12:13:57.428Z,20.88
2022-09-03T12:14:58.248Z,20.87
2022-09-03T12:15:59.174Z,20.88
2022-09-03T12:16:59.949Z,20.87
2022-09-03T12:18:00.777Z,20.87
2022-09-03T12:19:01.607Z,20.84
2022-09-03T12:20:02.436Z,20.85
2022-09-03T12:21:03.255Z,20.85
2022-09-03T12:22:04.087Z,20.85
2022-09-03T12:23:04.708Z,20.88
2022-09-03T12:24:05.545Z,20.88
2022-09-03T12:25:06.374Z,20.91
2022-09-03T12:26:07.103Z,20.91
2022-09-03T12:27:07.934Z,20.88
2022-09-03T12:28:08.765Z,20.89
2022-09-03T12:29:12.155Z,20.87
2022-09-03T12:30:10.134Z,20.87
2022-09-03T12:31:10.978Z,20.87
2022-09-03T12:32:11.784Z,20.85
2022-09-03T12:33:12.604Z,20.79
2022-09-03T12:34:13.447Z,20.76
2022-09-03T12:35:14.368Z,20.72
2022-09-03T12:36:15.141Z,20.69
2022-09-03T12:37:15.962Z,20.67
2022-09-03T12:38:18.671Z,20.66
2022-09-03T12:39:17.981Z,20.64
2022-09-03T12:40:18.492Z,20.61
2022-09-03T12:41:23.051Z,20.59
2022-09-03T12:42:21.014Z,20.55
2022-09-03T12:43:50.650Z,20.55
2022-09-03T12:44:22.568Z,20.57
2022-09-03T12:45:22.541Z,20.55
2022-09-03T12:46:32.375Z,20.57
2022-09-03T12:47:40.654Z,20.58
2022-09-03T12:48:25.810Z,20.58
2022-09-03T12:49:32.888Z,20.57
2022-09-03T12:50:27.352Z,20.54
2022-09-03T12:52:28.890Z,20.55
2022-09-03T12:53:28.718Z,20.55
2022-09-03T12:54:29.518Z,20.55
2022-09-03T12:55:30.338Z,20.57
2022-09-03T12:56:31.168Z,20.58
2022-09-03T12:57:33.025Z,20.58
2022-09-03T12:58:32.901Z,20.59
2022-09-03T12:59:33.732Z,20.64
2022-09-03T13:00:34.561Z,20.64
2022-09-03T13:01:35.456Z,20.62
2022-09-03T13:02:36.271Z,20.64
2022-09-03T13:03:37.116Z,20.66
2022-09-03T13:04:37.945Z,20.66